Time;durP1;ratioP1;P1;durP2;ratioP2;P2;SDS_P1;SDS_P2;PMS_P1;PMS_P2;Temp;Humidity;BMP_temperature;BMP_pressure;BME280_temperature;BME280_humidity;BME280_pressure;Samples;Min_cycle;Max_cycle;Signal;HPM_P1;HPM_P2
2023/08/28 00:00:10;;;;;;;2.90;2.30;;;;;;;20.45;87.43;99456.02;128075;1282;108756;-80
2023/08/28 00:03:35;;;;;;;3.60;2.10;;;;;;;20.42;87.78;99432.73;128108;1284;110023;-80
2023/08/28 00:06:41;;;;;;;2.80;2.30;;;;;;;20.27;88.55;99407.22;128037;1284;107543;-80
2023/08/28 00:09:46;;;;;;;3.10;1.80;;;;;;;20.10;88.32;99408.57;128031;1284;107025;-81
2023/08/28 00:12:52;;;;;;;3.90;2.00;;;;;;;20.05;88.64;99413.11;128017;1282;107971;-80
2023/08/28 00:15:57;;;;;;;3.20;2.00;;;;;;;19.98;89.14;99421.40;128104;1285;107505;-80
2023/08/28 00:19:03;;;;;;;3.20;2.00;;;;;;;19.92;89.02;99408.81;128029;1283;107447;-80
2023/08/28 00:22:09;;;;;;;2.50;1.90;;;;;;;19.95;88.83;99404.88;128062;1283;108145;-80
2023/08/28 00:25:15;;;;;;;3.10;1.70;;;;;;;19.96;88.55;99408.56;128018;1282;107335;-80
2023/08/28 00:28:21;;;;;;;1.80;1.60;;;;;;;19.98;88.93;99416.20;128111;1285;108892;-81
2023/08/28 00:31:26;;;;;;;3.60;1.70;;;;;;;19.97;88.79;99424.58;128093;1282;106575;-80
2023/08/28 00:34:32;;;;;;;3.00;2.10;;;;;;;20.05;88.74;99414.63;128035;1284;108391;-80
2023/08/28 00:37:38;;;;;;;3.10;2.10;;;;;;;20.03;88.85;99415.12;127934;1287;108656;-80
2023/08/28 00:40:44;;;;;;;1.90;1.50;;;;;;;19.95;89.02;99426.48;128066;1282;107645;-80
2023/08/28 00:43:49;;;;;;;1.90;1.40;;;;;;;20.02;89.15;99429.98;128001;1285;106805;-80
2023/08/28 00:46:56;;;;;;;3.00;1.70;;;;;;;20.09;89.07;99424.46;127986;1283;106697;-80
2023/08/28 00:50:01;;;;;;;2.60;1.70;;;;;;;20.13;88.93;99419.20;127969;1285;106939;-80
2023/08/28 00:53:07;;;;;;;3.20;1.90;;;;;;;20.03;89.91;99422.75;127953;1296;200117;-80
2023/08/28 00:56:13;;;;;;;2.80;1.70;;;;;;;19.79;90.20;99428.09;128024;1284;108526;-80
2023/08/28 00:59:19;;;;;;;2.30;1.60;;;;;;;19.72;90.39;99438.91;127904;1285;107686;-81
2023/08/28 01:02:24;;;;;;;2.80;1.80;;;;;;;19.73;90.86;99442.63;128001;1284;107944;-81
2023/08/28 01:05:38;;;;;;;2.20;1.90;;;;;;;19.66;91.03;99434.24;128154;1285;107784;-80
2023/08/28 01:08:54;;;;;;;2.80;1.70;;;;;;;19.64;90.76;99449.34;127984;1288;108807;-80
2023/08/28 01:12:09;;;;;;;3.50;1.70;;;;;;;19.73;90.58;99454.85;128033;1283;107786;-80
2023/08/28 01:15:19;;;;;;;1.80;1.40;;;;;;;19.79;90.40;99453.02;127952;1288;108023;-80
2023/08/28 01:18:25;;;;;;;1.70;1.60;;;;;;;19.81;90.49;99459.44;127877;1285;106758;-80
2023/08/28 01:21:32;;;;;;;1.90;1.70;;;;;;;19.83;90.63;99459.32;128411;1279;107884;-81
2023/08/28 01:24:43;;;;;;;1.90;1.60;;;;;;;19.89;90.53;99457.26;128382;1279;108569;-81
2023/08/28 01:27:49;;;;;;;2.70;2.00;;;;;;;19.91;90.87;99462.86;128008;1280;106975;-83
2023/08/28 01:30:54;;;;;;;2.90;1.90;;;;;;;19.82;90.79;99452.96;127969;1279;108089;-82
2023/08/28 01:34:00;;;;;;;2.20;1.80;;;;;;;19.77;91.42;99451.91;128133;1283;106662;-81
2023/08/28 01:37:17;;;;;;;2.20;2.00;;;;;;;19.72;91.67;99467.52;128451;1285;107750;-81
2023/08/28 01:40:27;;;;;;;2.40;1.60;;;;;;;19.70;91.42;99469.36;128430;1279;107566;-81
2023/08/28 01:43:36;;;;;;;3.50;2.00;;;;;;;19.70;91.51;99466.49;128414;1279;106796;-81
2023/08/28 01:46:42;;;;;;;4.60;1.80;;;;;;;19.70;91.32;99484.02;128409;1285;107284;-80
2023/08/28 01:49:48;;;;;;;2.30;1.90;;;;;;;19.75;91.27;99484.09;128339;1279;107474;-81
2023/08/28 01:52:55;;;;;;;2.10;1.90;;;;;;;19.80;91.37;99479.77;128444;1284;106773;-80
2023/08/28 01:56:24;;;;;;;2.20;2.00;;;;;;;19.80;91.24;99485.89;128063;1285;108767;-80
2023/08/28 01:59:30;;;;;;;2.90;2.00;;;;;;;19.73;91.73;99488.30;128050;1285;106539;-82
2023/08/28 02:02:36;;;;;;;2.00;1.40;;;;;;;19.60;91.71;99474.63;128127;1284;107872;-82
2023/08/28 02:05:42;;;;;;;5.10;1.90;;;;;;;19.58;92.03;99471.34;128373;1284;106579;-81
2023/08/28 02:08:48;;;;;;;3.00;2.30;;;;;;;19.51;92.41;99470.12;128444;1285;106607;-81
2023/08/28 02:11:54;;;;;;;2.90;2.00;;;;;;;19.39;92.67;99462.21;128178;1279;106497;-82
2023/08/28 02:14:59;;;;;;;2.30;2.10;;;;;;;19.30;92.68;99466.91;128076;1284;107981;-80
2023/08/28 02:18:06;;;;;;;2.60;2.20;;;;;;;19.27;93.28;99474.37;128409;1279;108844;-80
2023/08/28 02:21:12;;;;;;;2.10;1.90;;;;;;;19.27;93.05;99470.83;128383;1285;108563;-80
2023/08/28 02:24:18;;;;;;;2.30;1.70;;;;;;;19.25;93.02;99483.39;128089;1285;106544;-80
2023/08/28 02:27:23;;;;;;;2.20;1.80;;;;;;;19.28;93.11;99483.10;128289;1279;108103;-80
2023/08/28 02:30:29;;;;;;;2.40;2.00;;;;;;;19.26;93.41;99484.16;128043;1284;106751;-80
2023/08/28 02:33:35;;;;;;;2.30;2.10;;;;;;;19.20;93.24;99476.95;128075;1279;107971;-79
2023/08/28 02:36:40;;;;;;;3.20;2.30;;;;;;;19.15;93.62;99465.61;128095;1283;108886;-80
2023/08/28 02:39:46;;;;;;;1.80;1.60;;;;;;;19.16;93.28;99468.65;128356;1279;106670;-80
2023/08/28 02:42:52;;;;;;;2.30;1.70;;;;;;;19.27;93.20;99484.86;128101;1286;108653;-80
2023/08/28 02:45:58;;;;;;;2.40;1.60;;;;;;;19.39;93.03;99488.59;128360;1281;106956;-80
2023/08/28 02:49:03;;;;;;;2.40;1.90;;;;;;;19.45;92.92;99487.65;128441;1279;106966;-81
2023/08/28 02:52:09;;;;;;;3.50;2.00;;;;;;;19.47;92.76;99492.85;128329;1285;106584;-80
2023/08/28 02:55:15;;;;;;;2.10;1.70;;;;;;;19.43;92.63;99491.99;128374;1279;107712;-81
2023/08/28 02:58:20;;;;;;;2.80;2.20;;;;;;;19.48;92.84;99501.00;128383;1279;106789;-82
2023/08/28 03:01:26;;;;;;;2.40;2.10;;;;;;;19.55;92.78;99513.80;128062;1284;108542;-80
2023/08/28 03:04:34;;;;;;;2.50;1.70;;;;;;;19.62;92.43;99519.77;128365;1279;106873;-81
2023/08/28 03:07:41;;;;;;;1.90;1.60;;;;;;;19.66;92.37;99522.73;128382;1279;107697;-80
2023/08/28 03:10:46;;;;;;;3.10;1.70;;;;;;;19.69;92.22;99524.60;128128;1284;107695;-81
2023/08/28 03:13:52;;;;;;;2.30;1.50;;;;;;;19.69;91.98;99540.79;128360;1284;107902;-80
2023/08/28 03:16:58;;;;;;;1.90;1.40;;;;;;;19.70;92.00;99552.07;128051;1284;107828;-80
2023/08/28 03:20:09;;;;;;;1.80;1.60;;;;;;;19.68;91.88;99551.80;128099;1279;106397;-81
2023/08/28 03:23:15;;;;;;;1.90;1.60;;;;;;;19.68;91.84;99544.60;128098;1287;107505;-80
2023/08/28 03:26:21;;;;;;;2.80;2.00;;;;;;;19.66;91.52;99536.47;128343;1279;107046;-81
2023/08/28 03:29:26;;;;;;;3.60;2.10;;;;;;;19.61;91.47;99526.57;128385;1293;106680;-80
2023/08/28 03:32:32;;;;;;;3.00;1.80;;;;;;;19.58;91.45;99528.88;128421;1284;106734;-80
2023/08/28 03:35:37;;;;;;;2.90;1.90;;;;;;;19.57;91.46;99534.63;128371;1285;107794;-80
2023/08/28 03:38:43;;;;;;;2.20;2.00;;;;;;;19.57;91.41;99541.46;128083;1279;107078;-80
2023/08/28 03:41:49;;;;;;;2.30;2.10;;;;;;;19.58;91.47;99546.67;128428;1284;106966;-80
2023/08/28 03:44:54;;;;;;;2.70;2.00;;;;;;;19.59;91.37;99554.17;128017;1279;108594;-80
2023/08/28 03:48:00;;;;;;;2.30;1.90;;;;;;;19.58;91.27;99550.65;128046;1285;107686;-80
2023/08/28 03:51:05;;;;;;;3.10;2.10;;;;;;;19.55;91.19;99552.43;128001;1287;107912;-80
2023/08/28 03:54:13;;;;;;;3.40;3.00;;;;;;;19.57;91.28;99559.48;128407;1284;107839;-80
2023/08/28 03:57:20;;;;;;;4.30;2.30;;;;;;;19.54;91.18;99569.93;128474;1285;107608;-80
2023/08/28 04:00:26;;;;;;;3.00;2.40;;;;;;;19.53;91.21;99564.61;127998;1285;107134;-80
2023/08/28 04:03:32;;;;;;;4.20;2.70;;;;;;;19.53;91.24;99562.08;128692;1284;108149;-80
2023/08/28 04:06:37;;;;;;;3.80;2.80;;;;;;;19.48;91.27;99564.48;128372;1292;108155;-80
2023/08/28 04:09:44;;;;;;;3.70;2.30;;;;;;;19.51;91.37;99569.76;128043;1286;108144;-80
2023/08/28 04:12:50;;;;;;;3.10;2.80;;;;;;;19.57;91.25;99564.73;128073;1286;108477;-80
2023/08/28 04:15:56;;;;;;;3.20;2.90;;;;;;;19.59;91.34;99565.83;128066;1287;108241;-80
2023/08/28 04:19:02;;;;;;;3.00;2.70;;;;;;;19.63;91.29;99566.40;128424;1291;106651;-80
2023/08/28 04:22:09;;;;;;;3.20;2.90;;;;;;;19.65;91.15;99581.27;128483;1279;107054;-81
2023/08/28 04:25:15;;;;;;;4.10;3.30;;;;;;;19.66;91.14;99579.57;128046;1294;106952;-82
2023/08/28 04:28:21;;;;;;;3.70;3.10;;;;;;;19.69;91.16;99578.94;128127;1286;107460;-80
2023/08/28 04:31:27;;;;;;;3.40;3.00;;;;;;;19.68;91.05;99577.70;128077;1284;107138;-80
2023/08/28 04:34:32;;;;;;;4.30;3.40;;;;;;;19.69;91.12;99579.55;128384;1293;106626;-81
2023/08/28 04:37:38;;;;;;;3.10;2.80;;;;;;;19.72;91.11;99586.80;128449;1292;107261;-81
2023/08/28 04:40:43;;;;;;;4.10;3.50;;;;;;;19.74;91.06;99582.90;128460;1284;107645;-83
2023/08/28 04:43:51;;;;;;;4.00;3.40;;;;;;;19.66;90.94;99586.84;128400;1284;107876;-80
2023/08/28 04:46:58;;;;;;;3.60;2.90;;;;;;;19.64;91.03;99583.46;128113;1283;107748;-81
2023/08/28 04:50:04;;;;;;;3.20;2.90;;;;;;;19.62;90.99;99584.40;128247;1284;107761;-82
2023/08/28 04:53:10;;;;;;;4.40;3.10;;;;;;;19.64;91.11;99600.36;128450;1285;106637;-81
2023/08/28 04:56:15;;;;;;;4.80;3.70;;;;;;;19.63;90.89;99607.70;128150;1285;107669;-82
2023/08/28 04:59:21;;;;;;;3.80;3.30;;;;;;;19.60;90.98;99615.69;128008;1283;106707;-77
2023/08/28 05:02:27;;;;;;;3.50;3.20;;;;;;;19.60;90.93;99621.05;127989;1279;107958;-75
2023/08/28 05:05:33;;;;;;;4.70;3.60;;;;;;;19.63;91.07;99609.87;128329;1278;108785;-75
2023/08/28 05:08:39;;;;;;;4.20;3.80;;;;;;;19.58;90.97;99605.98;128217;1288;107784;-75
2023/08/28 05:11:45;;;;;;;4.50;3.80;;;;;;;19.48;91.21;99594.08;127984;1284;106796;-75
2023/08/28 05:14:51;;;;;;;4.40;3.80;;;;;;;19.29;91.63;99594.15;128260;1284;108029;-75
2023/08/28 05:17:56;;;;;;;4.50;4.10;;;;;;;19.18;91.81;99603.35;128312;1285;107825;-74
2023/08/28 05:21:02;;;;;;;7.50;4.50;;;;;;;19.09;92.12;99613.83;128266;1284;108582;-75
2023/08/28 05:24:08;;;;;;;6.50;4.70;;;;;;;19.01;91.99;99617.25;128072;1286;106835;-74
2023/08/28 05:27:14;;;;;;;7.40;5.30;;;;;;;19.08;92.26;99616.07;128386;1284;108703;-74
2023/08/28 05:30:20;;;;;;;5.30;4.40;;;;;;;19.13;92.27;99607.30;127982;1285;106537;-75
2023/08/28 05:33:25;;;;;;;7.00;5.10;;;;;;;19.15;92.25;99602.20;128349;1285;107736;-76
2023/08/28 05:36:31;;;;;;;4.70;4.30;;;;;;;19.18;91.99;99608.00;128405;1285;105556;-74
2023/08/28 05:39:38;;;;;;;5.10;4.50;;;;;;;19.33;91.96;99614.20;128591;1281;106344;-74
2023/08/28 05:42:45;;;;;;;5.80;5.20;;;;;;;19.47;91.81;99611.43;128330;1285;108502;-74
2023/08/28 05:45:50;;;;;;;6.30;4.90;;;;;;;19.61;91.62;99600.45;128061;1294;107784;-74
2023/08/28 05:48:56;;;;;;;4.40;4.00;;;;;;;19.79;91.58;99598.58;128312;1284;108725;-75
2023/08/28 05:52:02;;;;;;;5.50;3.80;;;;;;;19.99;91.41;99608.37;128058;1284;107104;-74
2023/08/28 05:55:09;;;;;;;4.70;4.20;;;;;;;20.21;91.25;99601.03;128286;1284;107102;-76
2023/08/28 05:58:14;;;;;;;6.00;5.00;;;;;;;20.30;91.06;99594.31;128058;1284;106786;-78
2023/08/28 06:01:20;;;;;;;5.00;4.60;;;;;;;20.40;90.90;99592.88;128299;1284;107434;-75
2023/08/28 06:04:27;;;;;;;5.30;4.70;;;;;;;20.49;90.78;99591.42;128015;1285;106737;-76
2023/08/28 06:07:33;;;;;;;5.60;4.90;;;;;;;20.55;90.51;99592.05;128447;1279;107184;-79
2023/08/28 06:10:40;;;;;;;5.10;4.50;;;;;;;20.55;90.33;99589.34;128313;1284;109779;-77
2023/08/28 06:13:46;;;;;;;7.30;5.20;;;;;;;20.65;90.56;99590.63;128229;1285;107798;-79
2023/08/28 06:16:51;;;;;;;6.40;5.10;;;;;;;20.68;89.75;99594.98;128082;1279;106975;-81
2023/08/28 06:19:57;;;;;;;6.50;5.80;;;;;;;20.62;89.55;99589.42;128139;1279;108681;-80
2023/08/28 06:23:02;;;;;;;8.90;5.30;;;;;;;20.65;90.00;99593.63;127938;1287;107425;-79
2023/08/28 06:26:08;;;;;;;6.60;5.60;;;;;;;20.69;89.70;99596.52;128410;1284;108806;-82
2023/08/28 06:29:14;;;;;;;6.30;5.50;;;;;;;20.76;89.46;99596.84;128396;1279;108812;-81
2023/08/28 06:32:21;;;;;;;6.10;5.40;;;;;;;20.82;89.13;99590.73;128265;1284;107428;-82
2023/08/28 06:35:27;;;;;;;6.70;5.50;;;;;;;20.95;89.44;99598.02;128477;1292;106685;-75
2023/08/28 06:38:33;;;;;;;6.90;6.20;;;;;;;21.07;88.72;99605.83;128319;1285;110229;-75
2023/08/28 06:41:39;;;;;;;6.80;5.80;;;;;;;21.09;88.50;99605.33;128319;1284;107157;-80
2023/08/28 06:44:44;;;;;;;7.40;5.80;;;;;;;20.95;87.52;99616.45;128506;1285;107604;-78
2023/08/28 06:47:50;;;;;;;6.40;5.70;;;;;;;20.83;87.40;99623.30;128044;1279;106679;-81
2023/08/28 06:50:57;;;;;;;7.50;6.70;;;;;;;20.87;87.73;99626.70;128546;1280;107155;-78
2023/08/28 06:54:02;;;;;;;7.40;6.70;;;;;;;20.83;86.24;99635.79;128507;1279;107886;-80
2023/08/28 06:57:08;;;;;;;8.40;7.50;;;;;;;20.71;86.47;99637.82;129560;1279;106880;-81
2023/08/28 07:00:15;;;;;;;7.10;6.40;;;;;;;20.57;86.65;99641.44;130945;1283;107549;-82
2023/08/28 07:03:21;;;;;;;8.70;7.60;;;;;;;20.65;87.29;99641.26;130425;1279;105944;-81
2023/08/28 07:06:26;;;;;;;7.90;7.10;;;;;;;20.70;86.39;99638.99;131189;1279;107775;-82
2023/08/28 07:09:32;;;;;;;8.70;7.40;;;;;;;20.76;85.89;99646.95;129450;1283;109049;-76
2023/08/28 07:12:37;;;;;;;8.50;7.70;;;;;;;20.74;86.95;99644.94;128248;1280;108592;-80
2023/08/28 07:15:57;;;;;;;7.40;6.60;;;;;;;20.74;86.06;99643.32;128355;1290;109446;-80
2023/08/28 07:19:02;;;;;;;8.10;7.30;;;;;;;20.73;85.92;99642.44;128303;1285;106970;-82
2023/08/28 07:22:08;;;;;;;9.80;7.20;;;;;;;20.73;84.60;99646.48;128500;1281;108367;-82
2023/08/28 07:25:15;;;;;;;8.40;7.60;;;;;;;20.79;84.65;99654.61;128459;1284;106964;-83
2023/08/28 07:28:21;;;;;;;7.80;6.70;;;;;;;20.92;85.41;99654.92;128469;1284;107026;-83
2023/08/28 07:31:27;;;;;;;7.40;6.70;;;;;;;21.11;84.66;99655.29;128378;1280;106639;-78
2023/08/28 07:34:35;;;;;;;7.60;6.90;;;;;;;21.26;84.35;99649.16;128272;1284;107025;-78
2023/08/28 07:37:41;;;;;;;7.10;6.40;;;;;;;21.45;81.88;99647.79;128337;1293;107489;-79
2023/08/28 07:40:49;;;;;;;5.50;4.70;;;;;;;21.60;83.89;99646.10;128358;1292;107016;-79
2023/08/28 07:43:54;;;;;;;6.40;5.70;;;;;;;21.86;84.02;99636.83;128351;1285;108681;-77
2023/08/28 07:47:00;;;;;;;7.90;7.20;;;;;;;21.98;80.77;99640.04;128350;1284;108826;-79
2023/08/28 07:50:07;;;;;;;5.80;5.20;;;;;;;21.90;81.86;99647.92;128418;1279;108738;-79
2023/08/28 07:53:13;;;;;;;6.40;5.80;;;;;;;21.90;81.41;99650.86;128238;1292;107694;-79
2023/08/28 07:56:19;;;;;;;6.80;6.20;;;;;;;21.86;82.14;99651.48;128179;1285;107682;-78
2023/08/28 07:59:24;;;;;;;6.50;5.80;;;;;;;21.81;80.42;99639.18;128218;1283;107927;-78
2023/08/28 08:02:30;;;;;;;6.70;6.10;;;;;;;21.92;82.21;99640.59;128359;1279;108056;-80
2023/08/28 08:05:36;;;;;;;6.70;6.00;;;;;;;22.11;81.70;99635.30;128446;1285;107080;-79
2023/08/28 08:08:42;;;;;;;6.30;5.70;;;;;;;22.25;81.82;99633.31;128281;1292;108758;-79
2023/08/28 08:11:48;;;;;;;9.40;7.60;;;;;;;22.37;80.89;99627.77;128357;1284;107128;-79
2023/08/28 08:14:54;;;;;;;7.50;6.80;;;;;;;22.40;79.21;99626.78;128221;1284;107688;-77
2023/08/28 08:17:59;;;;;;;7.00;6.30;;;;;;;22.53;79.38;99634.02;128337;1286;109458;-78
2023/08/28 08:21:05;;;;;;;8.20;7.00;;;;;;;22.36;76.67;99633.78;128227;1279;107388;-78
2023/08/28 08:24:10;;;;;;;7.80;6.20;;;;;;;22.04;77.35;99632.86;128244;1284;107691;-78
2023/08/28 08:27:16;;;;;;;6.90;6.20;;;;;;;22.10;78.84;99625.80;128296;1292;108037;-78
2023/08/28 08:30:22;;;;;;;6.40;5.80;;;;;;;22.19;77.99;99629.39;128164;1283;107833;-78
2023/08/28 08:33:27;;;;;;;8.40;6.90;;;;;;;22.34;77.93;99622.55;128263;1286;108321;-78
2023/08/28 08:36:33;;;;;;;6.80;5.90;;;;;;;22.27;75.58;99639.22;128300;1286;108102;-77
2023/08/28 08:39:38;;;;;;;5.90;5.30;;;;;;;22.09;77.20;99638.02;128283;1292;107774;-78
2023/08/28 08:42:45;;;;;;;5.50;4.50;;;;;;;22.13;77.58;99638.73;128428;1285;107892;-77
2023/08/28 08:45:56;;;;;;;4.70;4.30;;;;;;;22.29;78.52;99641.55;128442;1284;107798;-78
2023/08/28 08:49:04;;;;;;;6.40;5.10;;;;;;;22.57;76.87;99639.30;128496;1279;107015;-76
2023/08/28 08:52:13;;;;;;;5.80;5.00;;;;;;;22.55;74.93;99639.81;128214;1285;107258;-78
2023/08/28 08:55:25;;;;;;;5.20;4.70;;;;;;;22.42;75.97;99645.69;128224;1289;107782;-79
2023/08/28 08:58:30;;;;;;;;;;;;;;;22.49;76.68;99645.58;128287;1285;108717;-78
2023/08/28 09:01:37;;;;;;;4.80;4.30;;;;;;;22.61;76.85;99643.94;128486;1284;108007;-80
2023/08/28 09:04:45;;;;;;;5.40;4.90;;;;;;;22.56;75.66;99624.73;128442;1289;106620;-81
2023/08/28 09:07:53;;;;;;;4.40;4.00;;;;;;;22.45;76.22;99614.05;128431;1279;107762;-76
2023/08/28 09:11:01;;;;;;;4.90;4.40;;;;;;;22.33;76.12;99617.10;128263;1286;106681;-78
2023/08/28 09:14:07;;;;;;;5.00;4.50;;;;;;;22.18;75.53;99613.36;128545;1283;107804;-78
2023/08/28 09:17:12;;;;;;;5.20;4.70;;;;;;;21.98;75.30;99612.67;128288;1283;107677;-78
2023/08/28 09:20:21;;;;;;;6.10;4.30;;;;;;;21.85;75.38;99617.36;128261;1283;107181;-79
2023/08/28 09:23:33;;;;;;;5.50;4.30;;;;;;;21.82;76.22;99630.98;128276;1291;107807;-77
2023/08/28 09:26:40;;;;;;;5.40;4.40;;;;;;;21.81;75.69;99640.80;128257;1285;107179;-78
2023/08/28 09:29:46;;;;;;;4.50;4.00;;;;;;;21.82;76.03;99641.10;128679;1279;107560;-76
2023/08/28 09:32:52;;;;;;;4.50;4.10;;;;;;;21.90;76.29;99645.27;128386;1279;107001;-76
2023/08/28 09:36:00;;;;;;;4.40;4.00;;;;;;;21.97;75.57;99654.60;128556;1283;109003;-75
2023/08/28 09:39:07;;;;;;;5.30;4.60;;;;;;;22.12;76.53;99667.51;128307;1283;108329;-79
2023/08/28 09:42:14;;;;;;;4.20;3.60;;;;;;;22.32;75.47;99668.84;128609;1292;108328;-76
2023/08/28 09:45:20;;;;;;;5.40;4.90;;;;;;;22.52;75.00;99675.12;128943;1279;108780;-76
2023/08/28 09:48:30;;;;;;;5.30;4.80;;;;;;;22.58;73.23;99682.98;128484;1279;108508;-76
2023/08/28 09:51:42;;;;;;;6.10;5.10;;;;;;;22.63;74.26;99674.70;128303;1283;106755;-76
2023/08/28 09:55:04;;;;;;;5.00;4.50;;;;;;;22.80;75.25;99659.98;128348;1283;108470;-76
2023/08/28 09:58:13;;;;;;;5.40;4.90;;;;;;;23.02;73.32;99658.05;128299;1293;107868;-76
2023/08/28 10:01:19;;;;;;;4.90;4.40;;;;;;;22.95;72.79;99655.88;128273;1286;107695;-76
2023/08/28 10:04:27;;;;;;;6.50;5.50;;;;;;;22.91;71.50;99663.92;128220;1280;109171;-76
2023/08/28 10:07:34;;;;;;;5.70;4.60;;;;;;;22.88;71.19;99672.33;128274;1284;108621;-76
2023/08/28 10:10:41;;;;;;;6.10;5.00;;;;;;;22.83;70.65;99676.86;128295;1283;109076;-76
2023/08/28 10:13:48;;;;;;;5.00;4.30;;;;;;;22.86;72.56;99668.48;128339;1284;108988;-77
2023/08/28 10:17:00;;;;;;;5.50;4.50;;;;;;;23.04;72.14;99669.27;128317;1284;108557;-76
2023/08/28 10:20:10;;;;;;;5.60;4.70;;;;;;;23.09;71.30;99683.92;128297;1283;108795;-76
2023/08/28 10:23:17;;;;;;;4.60;4.20;;;;;;;23.26;71.49;99692.45;128328;1284;108804;-77
2023/08/28 10:26:24;;;;;;;4.70;4.10;;;;;;;23.28;70.05;99701.08;128199;1283;108588;-76
2023/08/28 10:29:31;;;;;;;4.30;3.90;;;;;;;23.22;71.03;99704.15;128325;1283;108680;-77
2023/08/28 10:32:38;;;;;;;4.70;4.20;;;;;;;23.30;70.61;99686.79;128277;1284;108469;-76
2023/08/28 10:35:48;;;;;;;4.50;4.10;;;;;;;23.46;70.33;99682.14;128231;1292;108651;-76
2023/08/28 10:38:55;;;;;;;4.70;4.30;;;;;;;23.66;69.87;99673.30;128302;1283;108560;-76
2023/08/28 10:42:02;;;;;;;5.10;4.60;;;;;;;23.55;68.51;99662.65;128289;1284;108765;-76
2023/08/28 10:45:10;;;;;;;4.80;4.40;;;;;;;23.30;70.59;99678.67;128365;1280;108341;-76
2023/08/28 10:48:17;;;;;;;4.70;4.30;;;;;;;23.37;71.32;99680.13;128258;1285;108637;-77
2023/08/28 10:51:29;;;;;;;5.30;4.70;;;;;;;23.46;69.63;99688.86;128137;1283;108277;-76
2023/08/28 10:54:40;;;;;;;4.90;4.40;;;;;;;23.45;69.27;99697.98;128326;1283;108685;-76
2023/08/28 10:57:50;;;;;;;3.60;3.30;;;;;;;23.43;67.57;99699.10;128321;1283;108693;-77
2023/08/28 11:01:14;;;;;;;3.80;3.30;;;;;;;23.52;68.97;99695.30;128279;1283;109014;-76
2023/08/28 11:04:20;;;;;;;4.10;3.70;;;;;;;23.79;68.12;99684.23;128303;1283;108716;-76
2023/08/28 11:07:46;;;;;;;9.00;4.20;;;;;;;23.77;68.26;99664.13;128399;1279;108550;-76
2023/08/28 11:11:13;;;;;;;4.20;3.70;;;;;;;23.66;66.63;99652.55;128285;1284;108550;-76
2023/08/28 11:14:19;;;;;;;3.70;3.40;;;;;;;23.74;67.77;99637.03;128384;1285;108627;-76
2023/08/28 11:17:25;;;;;;;3.70;3.40;;;;;;;23.78;66.03;99629.61;128281;1283;108799;-76
2023/08/28 11:20:38;;;;;;;3.90;3.40;;;;;;;23.69;66.57;99617.45;128257;1284;108616;-75
2023/08/28 11:23:47;;;;;;;4.20;3.40;;;;;;;23.70;67.09;99600.54;128407;1279;108670;-76
2023/08/28 11:26:53;;;;;;;4.20;3.60;;;;;;;23.83;66.14;99593.38;128317;1284;108172;-76
2023/08/28 11:30:00;;;;;;;3.40;3.00;;;;;;;23.81;66.02;99594.67;128449;1283;107895;-76
2023/08/28 11:33:07;;;;;;;4.10;3.40;;;;;;;23.81;65.24;99609.55;128314;1283;108549;-77
2023/08/28 11:36:17;;;;;;;3.90;3.60;;;;;;;23.72;63.96;99632.91;128455;1283;108618;-76
2023/08/28 11:39:23;;;;;;;4.00;3.50;;;;;;;23.56;63.32;99640.23;128123;1289;107854;-77
2023/08/28 11:42:30;;;;;;;3.50;3.20;;;;;;;23.46;64.58;99635.70;128323;1293;107461;-76
2023/08/28 11:45:36;;;;;;;4.20;3.30;;;;;;;23.54;65.32;99638.52;128264;1285;107276;-76
2023/08/28 11:48:48;;;;;;;3.60;3.30;;;;;;;23.69;65.90;99644.52;128167;1283;108555;-76
2023/08/28 11:51:53;;;;;;;3.20;2.90;;;;;;;23.77;65.59;99644.04;128264;1285;107799;-76
2023/08/28 11:55:04;;;;;;;3.30;3.10;;;;;;;23.77;65.86;99639.83;128250;1284;107892;-76
2023/08/28 11:58:10;;;;;;;3.90;3.40;;;;;;;23.73;66.47;99651.23;128295;1292;107760;-76
2023/08/28 12:01:17;;;;;;;3.70;3.30;;;;;;;23.69;66.72;99659.84;128185;1292;108561;-77
2023/08/28 12:04:25;;;;;;;3.40;3.10;;;;;;;23.67;67.01;99659.81;128255;1279;108256;-76
2023/08/28 12:07:30;;;;;;;4.10;3.30;;;;;;;23.61;66.73;99655.87;128214;1285;108673;-76
2023/08/28 12:10:36;;;;;;;3.10;2.80;;;;;;;23.59;66.84;99677.91;128232;1285;109063;-77
2023/08/28 12:13:43;;;;;;;3.50;3.20;;;;;;;23.59;67.49;99676.98;128211;1283;108686;-76
2023/08/28 12:16:51;;;;;;;3.70;3.30;;;;;;;23.57;67.52;99658.33;128255;1285;108766;-76
2023/08/28 12:19:57;;;;;;;4.40;3.60;;;;;;;23.49;66.69;99639.94;128322;1292;108758;-76
2023/08/28 12:23:03;;;;;;;3.90;3.10;;;;;;;23.17;66.23;99629.23;128225;1283;108434;-75
2023/08/28 12:26:09;;;;;;;3.70;3.30;;;;;;;22.98;67.68;99661.73;128242;1283;108606;-76
2023/08/28 12:29:15;;;;;;;5.30;3.10;;;;;;;22.93;68.41;99649.06;128230;1279;108427;-76
2023/08/28 12:32:22;;;;;;;5.90;3.80;;;;;;;23.02;69.26;99642.13;128285;1292;108314;-77
2023/08/28 12:35:28;;;;;;;3.50;3.20;;;;;;;23.16;70.19;99638.58;128276;1280;108296;-76
2023/08/28 12:38:46;;;;;;;4.50;3.40;;;;;;;23.24;70.34;99637.33;127886;1279;108747;-76
2023/08/28 12:41:53;;;;;;;3.50;3.20;;;;;;;23.30;70.64;99630.17;128184;1285;108743;-76
2023/08/28 12:44:59;;;;;;;5.70;4.20;;;;;;;23.31;70.44;99624.52;128297;1279;108819;-76
2023/08/28 12:48:06;;;;;;;4.60;3.80;;;;;;;23.30;70.55;99628.59;128234;1285;108013;-76
2023/08/28 12:51:11;;;;;;;4.20;3.70;;;;;;;23.25;71.41;99626.89;128229;1284;108268;-77
2023/08/28 12:54:19;;;;;;;4.70;4.30;;;;;;;23.18;71.55;99620.43;128014;1289;311192;-76
2023/08/28 12:57:25;;;;;;;4.30;3.90;;;;;;;23.13;72.23;99628.41;128243;1286;107651;-76
2023/08/28 13:00:31;;;;;;;4.20;3.80;;;;;;;23.10;72.55;99629.13;128269;1283;108187;-76
2023/08/28 13:03:37;;;;;;;4.50;3.70;;;;;;;23.13;72.38;99615.24;128209;1284;108548;-77
2023/08/28 13:06:43;;;;;;;4.30;3.80;;;;;;;23.25;72.54;99616.98;128310;1285;108715;-76
2023/08/28 13:09:49;;;;;;;5.50;3.80;;;;;;;23.32;72.82;99615.31;128269;1284;107579;-77
2023/08/28 13:12:55;;;;;;;4.50;4.10;;;;;;;23.35;72.59;99607.35;128291;1279;106806;-77
2023/08/28 13:16:01;;;;;;;5.10;4.70;;;;;;;23.33;72.81;99609.84;128202;1293;107783;-76
2023/08/28 13:19:07;;;;;;;5.90;4.70;;;;;;;23.34;72.89;99622.38;128250;1283;108736;-76
2023/08/28 13:22:13;;;;;;;4.80;4.30;;;;;;;23.27;73.01;99632.95;128216;1284;108341;-76
2023/08/28 13:25:19;;;;;;;5.30;4.50;;;;;;;23.14;73.14;99634.42;128277;1286;107822;-77
2023/08/28 13:28:24;;;;;;;5.00;4.50;;;;;;;23.06;73.13;99628.70;128326;1279;107987;-77
2023/08/28 13:31:31;;;;;;;4.70;4.20;;;;;;;22.98;73.37;99619.89;128323;1294;108127;-77
2023/08/28 13:34:39;;;;;;;5.20;4.10;;;;;;;22.97;73.48;99610.91;128349;1279;107999;-77
2023/08/28 13:37:45;;;;;;;5.40;4.60;;;;;;;23.05;73.57;99604.52;128328;1284;107200;-76
2023/08/28 13:40:51;;;;;;;5.20;4.50;;;;;;;23.10;73.72;99595.34;128258;1285;108127;-76
2023/08/28 13:43:59;;;;;;;9.50;4.90;;;;;;;23.12;73.99;99581.60;128136;1286;107722;-77
2023/08/28 13:47:06;;;;;;;5.20;4.70;;;;;;;23.11;73.66;99574.34;128220;1279;107720;-76
2023/08/28 13:50:12;;;;;;;5.60;5.00;;;;;;;23.21;74.21;99564.78;128329;1292;108642;-77
2023/08/28 13:53:17;;;;;;;4.80;4.30;;;;;;;23.26;74.24;99566.03;128261;1286;107847;-78
2023/08/28 13:56:23;;;;;;;5.90;4.90;;;;;;;23.26;74.42;99570.39;128236;1285;107068;-78
2023/08/28 13:59:29;;;;;;;4.80;4.20;;;;;;;23.27;74.46;99571.70;128236;1292;106440;-78
2023/08/28 14:02:36;;;;;;;4.00;3.70;;;;;;;23.28;74.31;99571.84;128231;1283;107793;-78
2023/08/28 14:05:42;;;;;;;4.50;4.10;;;;;;;23.28;74.56;99572.36;128265;1283;107646;-77
2023/08/28 14:08:48;;;;;;;4.20;3.80;;;;;;;23.26;74.15;99572.50;128251;1279;108761;-78
2023/08/28 14:11:53;;;;;;;4.40;4.00;;;;;;;23.28;74.21;99570.31;128205;1284;106903;-77
2023/08/28 14:15:02;;;;;;;4.30;3.90;;;;;;;23.29;74.18;99569.40;128221;1283;106911;-78
2023/08/28 14:18:08;;;;;;;5.20;3.90;;;;;;;23.30;74.20;99571.15;128224;1284;106746;-78